Latest Weather Observations for Hartz Mountains

IDT60801

Issued at 8:31 pm EST Thursday 3 September 2015 (issued every 30 minutes, with the page automatically refreshed every 10 minutes)

About weather observations | Map of weather stations | Latest weather observations for TAS | Other Formats
Station Details ID: 094191 Name: HARTZ MOUNTAIN (KEOGHS PIMPLE) Lat: -43.20 Lon: 146.77 Height: 831.0 m
Data from the previous 72 hours. | See also: Recent months at Hartz Mountains
Date/Time
EST
Temp
°C
App
Temp
°C
Dew
Point
Rel
Hum
%
Delta-T
°C
Wind Press
QNH
hPa
Press
MSL
hPa
Rain
since 9 am
mm
Dir
 
Spd
km/h
Gust
km/h
Spd
kts
Gust
kts
03/08:30pm -0.3 -7.8 -1.7 90 0.5 W 28 39 15 21 - - 0.0
03/08:00pm -0.4 -8.4 -2.0 89 0.6 W 30 50 16 27 - - 0.0
03/07:53pm -0.2 -8.2 -2.4 85 0.8 WSW 30 50 16 27 - - 0.0
03/07:30pm -0.2 -8.5 -1.6 90 0.5 WSW 32 39 17 21 - - 0.0
03/07:00pm 0.0 -8.2 -1.3 91 0.5 WSW 32 46 17 25 - - 0.0
03/06:30pm 0.1 -7.8 -1.2 91 0.5 WSW 30 39 16 21 - - 0.0
03/06:00pm 0.2 -8.1 -1.7 87 0.7 WSW 32 41 17 22 - - 0.0
03/05:30pm 0.5 -7.9 -2.2 82 1.0 WSW 32 43 17 23 - - 0.0
03/05:00pm 1.0 -7.3 -1.6 83 1.0 W 32 44 17 24 - - 0.0
03/04:30pm 1.0 -7.0 -2.2 79 1.2 WSW 30 43 16 23 - - 0.0
03/04:00pm 1.2 -7.8 -2.4 77 1.4 SW 35 46 19 25 - - 0.0
03/03:30pm 2.5 -4.6 -1.5 75 1.5 WSW 26 37 14 20 - - 0.0
03/03:00pm 3.3 -5.3 0.0 79 1.3 SW 35 46 19 25 - - 0.0
03/02:30pm 2.7 -6.5 -1.5 74 1.6 SW 37 50 20 27 - - 0.0
03/02:22pm 3.6 -4.9 1.2 84 1.0 SW 35 54 19 29 - - 0.0
03/02:00pm 2.9 -6.7 -1.3 74 1.6 SW 39 52 21 28 - - 0.0
03/01:30pm 2.6 -5.6 -0.8 78 1.3 WSW 32 44 17 24 - - 0.0
03/01:00pm 3.3 -4.9 0.4 81 1.2 WSW 33 46 18 25 - - 0.0
03/12:38pm 2.5 -5.5 0.2 85 0.9 SW 32 54 17 29 - - 0.0
03/12:30pm 2.4 -5.3 0.1 85 0.9 SW 30 41 16 22 - - 0.0
03/12:22pm 2.8 -4.4 0.7 86 0.8 WSW 28 46 15 25 - - 0.0
03/12:00pm 1.9 -6.8 -0.3 85 0.8 SW 35 46 19 25 - - 0.0
03/11:34am 0.9 -7.4 0.0 94 0.3 SW 33 54 18 29 - - 0.0
03/11:30am 1.1 -6.6 0.2 94 0.3 SW 30 43 16 23 - - 0.0
03/11:00am 2.0 -5.9 1.1 94 0.4 WSW 32 44 17 24 - - 0.0
03/10:30am 2.1 -4.9 -0.2 85 0.9 WSW 26 37 14 20 - - 0.0
03/10:00am 1.5 -6.2 0.0 90 0.6 SW 30 43 16 23 - - 0.0
03/09:31am 1.5 -5.8 0.3 92 0.5 WSW 28 57 15 31 - - 0.0
03/09:30am 1.4 -5.6 -0.4 88 0.7 WSW 26 57 14 31 - - 0.0
03/09:00am 0.8 -6.5 -0.1 94 0.3 SSW 28 56 15 30 - - 4.6
03/08:31am 0.9 -6.0 0.2 95 0.3 SSW 26 46 14 25 - - 4.6
03/08:30am 0.9 -6.0 0.3 96 0.2 SSW 26 46 14 25 - - 4.6
03/08:00am 0.7 -7.3 0.1 96 0.2 SW 32 52 17 28 - - 4.6
03/07:30am 0.6 -6.7 0.2 97 0.2 WSW 28 52 15 28 - - 4.6
03/07:10am 0.8 -6.4 0.4 97 0.2 SW 28 46 15 25 - - 4.6
03/07:00am 1.0 -6.2 0.7 98 0.1 SW 28 43 15 23 - - 4.4
03/06:30am 1.1 -6.8 0.8 98 0.1 SW 32 52 17 28 - - 4.4
03/06:15am 1.5 -5.6 1.2 98 0.1 SW 28 48 15 26 - - 4.2
03/06:00am 1.8 -3.1 1.7 99 0.0 SW 17 32 9 17 - - 4.2
03/05:30am 1.9 -5.9 1.8 99 0.0 WSW 32 44 17 24 - - 4.0
03/05:00am 2.1 -5.7 2.0 99 0.0 WSW 32 48 17 26 - - 3.8
03/04:30am 2.0 -5.4 1.9 99 0.0 SW 30 39 16 21 - - 3.8
03/04:00am 2.1 -4.9 1.8 98 0.1 WSW 28 39 15 21 - - 3.8
03/03:30am 1.9 -5.5 1.6 98 0.1 WSW 30 41 16 22 - - 3.6
03/03:00am 1.8 -7.4 1.4 97 0.2 SW 39 54 21 29 - - 3.6
03/02:53am 1.9 -6.1 1.5 97 0.2 SW 33 54 18 29 - - 3.6
03/02:30am 2.8 -4.9 2.2 96 0.2 SW 32 46 17 25 - - 3.4
03/02:00am 3.1 -5.5 2.8 98 0.1 WSW 37 48 20 26 - - 3.2
03/01:53am 3.1 -5.1 2.8 98 0.1 WSW 35 48 19 26 - - 3.2
03/01:30am 3.6 -1.6 3.3 98 0.1 SW 20 30 11 16 - - 2.6
03/01:00am 4.1 -1.8 4.0 99 0.0 SW 24 30 13 16 - - 2.0
03/12:30am 4.5 -0.3 4.4 99 0.0 W 19 26 10 14 - - 1.6
03/12:00am 4.5 -2.8 4.4 99 0.0 WNW 32 44 17 24 - - 0.8
 
Date/Time
EST
Temp
°C
App
Temp
°C
Dew
Point
Rel
Hum
%
Delta-T
°C
Wind Press
QNH
hPa
Press
MSL
hPa
Rain
since 9 am
mm
Dir
 
Spd
km/h
Gust
km/h
Spd
kts
Gust
kts
02/11:30pm 4.4 -2.6 4.1 98 0.1 W 30 50 16 27 - - 0.6
02/11:25pm 4.4 -3.0 4.1 98 0.1 W 32 50 17 27 - - 0.6
02/11:00pm 4.4 -3.5 4.1 98 0.1 WNW 35 52 19 28 - - 0.6
02/10:39pm 4.3 -3.1 4.0 98 0.1 WNW 32 50 17 27 - - 0.6
02/10:30pm 4.3 -3.7 4.0 98 0.1 WNW 35 46 19 25 - - 0.6
02/10:00pm 4.2 -2.5 3.9 98 0.1 WNW 28 48 15 26 - - 0.4
02/09:35pm 4.2 -3.2 3.8 97 0.2 WNW 32 52 17 28 - - 0.4
02/09:30pm 4.3 -2.7 3.9 97 0.2 WNW 30 43 16 23 - - 0.4
02/09:00pm 4.2 -1.7 3.8 97 0.2 W 24 39 13 21 - - 0.2
02/08:30pm 4.1 -1.5 3.5 96 0.3 W 22 41 12 22 - - 0.2
02/08:00pm 4.3 -2.8 3.4 94 0.4 W 30 41 16 22 - - 0.2
02/07:30pm 4.4 -2.3 3.5 94 0.4 W 28 43 15 23 - - 0.2
02/07:00pm 4.4 -3.1 3.5 94 0.4 W 32 44 17 24 - - 0.2
02/06:30pm 4.2 -2.5 3.6 96 0.3 W 28 39 15 21 - - 0.2
02/06:00pm 4.2 -0.8 3.6 96 0.3 W 19 26 10 14 - - 0.2
02/05:30pm 4.2 -1.8 3.6 96 0.3 W 24 33 13 18 - - 0.0
02/05:00pm 4.3 -2.0 3.6 95 0.3 W 26 43 14 23 - - 0.0
02/04:30pm 4.6 -1.8 3.4 92 0.5 W 26 43 14 23 - - 0.0
02/04:00pm 5.1 -0.5 3.4 89 0.7 WSW 22 33 12 18 - - 0.0
02/03:30pm 5.3 -1.5 3.2 86 0.9 WSW 28 37 15 20 - - 0.0
02/03:00pm 5.2 -0.2 2.2 81 1.3 W 20 28 11 15 - - 0.0
02/02:30pm 6.1 0.3 0.2 66 2.4 W 20 30 11 16 - - 0.0
02/02:00pm 6.8 0.2 -0.2 61 2.9 W 24 35 13 19 - - 0.0
02/01:30pm 7.2 1.0 -0.3 59 3.1 W 22 33 12 18 - - 0.0
02/01:00pm 8.8 1.9 -2.8 44 4.5 W 24 35 13 19 - - 0.0
02/12:30pm 9.2 3.8 1.4 58 3.4 WNW 19 30 10 16 - - 0.0
02/12:00pm 8.1 3.0 1.0 61 3.0 W 17 26 9 14 - - 0.0
02/11:30am 9.1 4.5 1.8 60 3.2 WNW 15 22 8 12 - - 0.0
02/11:00am 8.2 2.4 -1.6 50 3.9 NW 19 26 10 14 - - 0.0
02/10:30am 7.8 2.7 -2.2 49 3.9 NW 15 26 8 14 - - 0.0
02/10:00am 6.7 1.1 -2.7 51 3.6 WNW 17 24 9 13 - - 0.0
02/09:30am 6.9 2.1 0.1 62 2.8 NW 15 22 8 12 - - 0.0
02/09:00am 5.2 0.2 -1.5 62 2.6 WNW 15 20 8 11 - - 0.4
02/08:30am 3.6 -0.8 0.5 80 1.2 W 13 19 7 10 - - 0.4
02/08:00am 2.6 -0.7 0.3 85 0.9 NNW 7 13 4 7 - - 0.4
02/07:30am 1.6 -1.9 1.2 97 0.2 WNW 9 17 5 9 - - 0.4
02/07:00am 0.6 -2.4 0.6 100 0.0 NE 6 11 3 6 - - 0.4
02/06:30am 0.4 -3.6 0.4 100 0.0 WNW 11 19 6 10 - - 0.4
02/06:00am 1.1 -3.9 1.1 100 0.0 WNW 17 20 9 11 - - 0.4
02/05:30am 0.6 -3.8 0.5 99 0.0 NW 13 17 7 9 - - 0.4
02/05:00am 1.3 -2.6 1.2 99 0.0 NW 11 15 6 8 - - 0.4
02/04:30am 1.7 -2.5 1.6 99 0.0 NW 13 17 7 9 - - 0.4
02/04:00am 1.7 -1.4 1.6 99 0.0 N 7 9 4 5 - - 0.4
02/03:30am 2.0 -1.0 1.9 99 0.0 NW 7 9 4 5 - - 0.4
02/03:00am 2.4 -0.9 2.3 99 0.0 NNW 9 11 5 6 - - 0.4
02/02:30am 2.5 -2.0 2.4 99 0.0 WNW 15 17 8 9 - - 0.4
02/02:00am 2.5 -1.6 2.4 99 0.0 W 13 19 7 10 - - 0.4
02/01:30am 2.7 -1.0 2.6 99 0.0 W 11 19 6 10 - - 0.4
02/01:00am 2.6 -1.1 2.5 99 0.0 W 11 15 6 8 - - 0.4
02/12:30am 1.9 -2.7 1.8 99 0.0 WNW 15 17 8 9 - - 0.4
02/12:00am 2.6 0.3 2.5 99 0.0 WNW 4 7 2 4 - - 0.4
 
Date/Time
EST
Temp
°C
App
Temp
°C
Dew
Point
Rel
Hum
%
Delta-T
°C
Wind Press
QNH
hPa
Press
MSL
hPa
Rain
since 9 am
mm
Dir
 
Spd
km/h
Gust
km/h
Spd
kts
Gust
kts
01/11:30pm 3.0 0.2 2.9 99 0.0 NW 7 9 4 5 - - 0.4
01/11:00pm 2.9 -0.3 2.8 99 0.0 N 9 13 5 7 - - 0.4
01/10:30pm 2.9 0.2 2.8 99 0.0 NNW 6 9 3 5 - - 0.4
01/10:00pm 3.0 1.5 2.9 99 0.0 CALM 0 0 0 0 - - 0.4
01/09:30pm 2.9 1.4 2.8 99 0.0 CALM 0 0 0 0 - - 0.4
01/09:00pm 2.9 0.6 2.8 99 0.0 SE 4 6 2 3 - - 0.0
01/08:30pm 2.9 0.0 2.8 99 0.0 ESE 7 11 4 6 - - 0.0
01/08:00pm 2.9 -0.4 2.6 98 0.1 ESE 9 11 5 6 - - 0.0
01/07:30pm 3.1 0.2 2.8 98 0.1 SE 7 9 4 5 - - 0.0
01/07:00pm 3.4 0.2 3.1 98 0.1 ESE 9 11 5 6 - - 0.0
01/06:30pm 3.6 0.1 3.3 98 0.1 ESE 11 15 6 8 - - 0.0
01/06:00pm 3.8 0.7 3.4 97 0.2 SE 9 13 5 7 - - 0.0
01/05:30pm 4.3 1.6 3.7 96 0.3 E 7 9 4 5 - - 0.0
01/05:00pm 4.8 2.7 3.8 93 0.4 E 4 9 2 5 - - 0.0
01/04:30pm 5.3 2.3 4.0 91 0.6 ESE 9 11 5 6 - - 0.0
01/04:00pm 6.1 3.5 4.3 88 0.8 E 7 11 4 6 - - 0.0
01/03:30pm 6.6 4.1 4.9 89 0.8 ENE 7 11 4 6 - - 0.0
01/03:00pm 6.3 3.9 4.3 87 0.9 NE 6 9 3 5 - - 0.0
01/02:30pm 7.0 4.1 4.7 85 1.1 NE 9 15 5 8 - - 0.0
01/02:00pm 7.2 4.3 4.9 85 1.1 NE 9 15 5 8 - - 0.0
01/01:30pm 6.7 3.9 3.1 78 1.6 NE 7 11 4 6 - - 0.0
01/01:00pm 7.2 4.3 4.9 85 1.1 NNE 9 13 5 7 - - 0.0
01/12:30pm 5.7 3.1 4.2 90 0.7 NNE 7 13 4 7 - - 0.0
01/12:00pm 5.7 2.8 4.5 92 0.5 ENE 9 13 5 7 - - 0.0
01/11:30am 5.2 2.8 4.2 93 0.4 NE 6 13 3 7 - - 0.0
01/11:00am 4.6 2.0 3.4 92 0.5 E 6 11 3 6 - - 0.0
01/10:30am 4.8 1.6 3.1 89 0.7 ENE 9 11 5 6 - - 0.0
01/10:00am 6.2 3.2 4.0 86 1.0 E 9 13 5 7 - - 0.0
01/09:30am 5.8 2.9 4.4 91 0.6 E 9 11 5 6 - - 0.0
01/09:00am 5.0 1.9 3.5 90 0.7 ESE 9 13 5 7 - - 2.4
01/08:30am 4.5 0.9 2.8 89 0.7 ESE 11 13 6 7 - - 2.4
01/08:00am 4.3 1.4 2.8 90 0.6 SE 7 11 4 6 - - 2.4
01/07:30am 3.3 0.4 2.4 94 0.4 SE 7 9 4 5 - - 2.4
01/07:00am 2.0 0.2 1.0 93 0.4 CALM 0 7 0 4 - - 2.4
01/06:30am 1.2 -1.9 0.3 94 0.3 SSW 6 7 3 4 - - 2.4
01/06:00am 0.9 -2.1 0.9 100 0.0 SW 6 9 3 5 - - 2.4
01/05:30am 0.9 -1.0 0.8 99 0.0 CALM 0 0 0 0 - - 2.4
01/05:00am 0.8 -2.4 0.7 99 0.0 SE 7 7 4 4 - - 2.4
01/04:30am 0.9 -2.3 0.9 100 0.0 SSE 7 9 4 5 - - 2.4
01/04:00am 0.3 -2.8 0.3 100 0.0 WSW 6 7 3 4 - - 2.2
01/03:30am 0.1 -1.9 0.1 100 0.0 CALM 0 0 0 0 - - 2.2
01/03:00am 0.8 -1.4 0.8 100 0.0 NE 2 7 1 4 - - 2.2
01/02:30am 0.7 -2.9 0.7 100 0.0 SE 9 13 5 7 - - 2.2
01/02:00am 0.8 -3.5 0.8 100 0.0 SE 13 15 7 8 - - 2.2
01/01:30am 1.2 -3.1 1.2 100 0.0 SSE 13 15 7 8 - - 2.2
01/01:00am 1.9 -1.9 1.9 100 0.0 SE 11 15 6 8 - - 2.2
01/12:30am 2.0 -2.1 2.0 100 0.0 SE 13 17 7 9 - - 2.0
01/12:00am 2.0 -2.1 2.0 100 0.0 SE 13 19 7 10 - - 2.0
 
Date/Time
EST
Temp
°C
App
Temp
°C
Dew
Point
Rel
Hum
%
Delta-T
°C
Wind Press
QNH
hPa
Press
MSL
hPa
Rain
since 9 am
mm
Dir
 
Spd
km/h
Gust
km/h
Spd
kts
Gust
kts
31/11:30pm 2.0 -2.9 2.0 100 0.0 ESE 17 24 9 13 - - 2.0
31/11:00pm 2.2 -2.7 2.2 100 0.0 SE 17 24 9 13 - - 2.0
31/10:30pm 2.4 -2.1 2.4 100 0.0 SE 15 22 8 12 - - 1.8
31/10:00pm 2.5 -1.9 2.5 100 0.0 ESE 15 20 8 11 - - 1.6
31/09:30pm 2.5 -2.7 2.5 100 0.0 ESE 19 26 10 14 - - 1.6
31/09:00pm 2.6 -2.6 2.6 100 0.0 ESE 19 26 10 14 - - 1.4

Other Formats:

Comma delimited format used in spreadsheet applications
http://www.bom.gov.au/fwo/IDT60801/IDT60801.94977.axf

JavaScript Object Notation format (JSON) in row-major order
http://www.bom.gov.au/fwo/IDT60801/IDT60801.94977.json